Four Wishes — ZCNL7 — position and weather

sailwx.info

Track history (hours):
 
Tides and Currents Weather Stations Pressure Air Temp Water Temp Dewpoint Dewpoint Depression Visibility Wind Speed Wind Dir Waves Ship Positions

Four Wishes

Last reported at 2014-Sep-18 13:14 UTC. Time now 2014-Sep-20 16:00 UTC.
Position N 40°44' W 074°02'.

Length 44 m; draft 2.2 m.

Type: Pleasure craft. MMSI: 319083000.

Date/timePositionNaut miles runAvg speedWind from/ knotsBaromVisibWave heightAir tempDewpointWater temp
2014-Sep-18 13:14N 40°44' W 074°02'0 0.0
2014-Sep-18 12:33N 40°44' W 074°02'0 0.0
2014-Sep-18 11:33N 40°44' W 074°02'0 0.1
2014-Sep-18 10:32N 40°44' W 074°02'  
2014-Sep-13 18:20N 40°42' W 074°00'8 9.9
2014-Sep-13 17:34N 40°48' W 073°54'9 8.5
2014-Sep-13 16:33N 40°52' W 073°44'1313.0
2014-Sep-13 15:33N 40°58' W 073°29'1313.0
2014-Sep-13 14:33N 41°01' W 073°12'1312.6
2014-Sep-13 13:33N 41°04' W 072°56'1212.4
2014-Sep-13 12:34N 41°06' W 072°40'1211.7
2014-Sep-13 11:34N 41°09' W 072°25'9 9.3
2014-Sep-13 10:34N 41°09' W 072°12'8 8.2
2014-Sep-13 09:34N 41°02' W 072°17'0 0.5
2014-Sep-13 08:33N 41°02' W 072°18'0 0.0
2014-Sep-13 07:33N 41°02' W 072°18'0 0.0
2014-Sep-13 06:33N 41°02' W 072°18'0 0.0
2014-Sep-13 05:33N 41°02' W 072°18'0 0.0
2014-Sep-13 04:33N 41°02' W 072°18'0 0.0
2014-Sep-13 03:33N 41°02' W 072°18'0 0.0
2014-Sep-13 02:33N 41°02' W 072°18'0 0.0
2014-Sep-13 01:33N 41°02' W 072°17'0 0.0
2014-Sep-13 00:33N 41°02' W 072°17'0 0.0
2014-Sep-12 23:33N 41°02' W 072°17'0 0.0
2014-Sep-12 22:33N 41°02' W 072°17'0 0.0
2014-Sep-12 21:33N 41°02' W 072°17'0 0.0
2014-Sep-12 20:33N 41°02' W 072°17'0 0.0
2014-Sep-12 19:33N 41°02' W 072°17'0 0.0
2014-Sep-12 18:33N 41°02' W 072°17'0 0.0
2014-Sep-12 17:33N 41°02' W 072°17'0 0.0
2014-Sep-12 16:33N 41°02' W 072°17'0 0.0
2014-Sep-12 15:33N 41°02' W 072°17'1 0.7
2014-Sep-12 14:33N 41°02' W 072°17'1110.7
2014-Sep-12 13:33N 41°09' W 072°07'9 9.2
2014-Sep-12 12:33N 41°04' W 071°56'0 0.0
2014-Sep-12 11:33N 41°04' W 071°56'0 0.0
2014-Sep-12 10:33N 41°04' W 071°56'0 0.0
2014-Sep-12 09:33N 41°04' W 071°56'0 0.0
2014-Sep-12 08:33N 41°04' W 071°56'0 0.0
2014-Sep-12 07:33N 41°04' W 071°56'0 0.0
2014-Sep-12 06:33N 41°04' W 071°56'0 0.0
2014-Sep-12 05:33N 41°04' W 071°56'0 0.0
2014-Sep-12 04:33N 41°04' W 071°56'0 0.0
2014-Sep-12 03:33N 41°04' W 071°56'0 0.0
2014-Sep-12 02:33N 41°04' W 071°56'0 0.0
2014-Sep-12 01:33N 41°04' W 071°56'0 0.0
2014-Sep-12 00:33N 41°04' W 071°56'0 0.0
2014-Sep-11 23:33N 41°04' W 071°56'0 0.0
2014-Sep-11 22:33N 41°04' W 071°56'0 0.0
2014-Sep-11 21:33N 41°04' W 071°56'0 0.0
2014-Sep-11 20:33N 41°04' W 071°56'0 0.0
2014-Sep-11 19:33N 41°04' W 071°56'0 0.0
2014-Sep-11 18:33N 41°04' W 071°56'0 0.0
2014-Sep-11 17:33N 41°04' W 071°56'0 0.0
2014-Sep-11 16:33N 41°04' W 071°56'0 0.0
2014-Sep-11 15:33N 41°04' W 071°56'0 0.0
2014-Sep-11 14:33N 41°04' W 071°56'0 0.0
2014-Sep-11 13:33N 41°04' W 071°56'0 0.0
2014-Sep-11 12:33N 41°04' W 071°56'0 0.0
2014-Sep-11 11:33N 41°04' W 071°56'0 0.0
2014-Sep-11 10:33N 41°04' W 071°56'0 0.0
2014-Sep-11 09:33N 41°04' W 071°56'0 0.0
2014-Sep-11 08:33N 41°04' W 071°56'0 0.0
2014-Sep-11 07:33N 41°04' W 071°56'0 0.0
2014-Sep-11 06:33N 41°04' W 071°56'0 0.0
2014-Sep-11 05:33N 41°04' W 071°56'0 0.0
2014-Sep-11 04:33N 41°04' W 071°56'0 0.0
2014-Sep-11 03:33N 41°04' W 071°56'0 0.0
2014-Sep-11 02:33N 41°04' W 071°56'0 0.0
2014-Sep-11 01:33N 41°04' W 071°56'0 0.0
2014-Sep-11 00:33N 41°04' W 071°56'0 0.0
2014-Sep-10 23:33N 41°04' W 071°56'0 0.0
2014-Sep-10 22:33N 41°04' W 071°56'0 0.0
2014-Sep-10 21:33N 41°04' W 071°56'0 0.0
2014-Sep-10 20:33N 41°04' W 071°56'0 0.0
2014-Sep-10 19:33N 41°04' W 071°56'0 0.0
2014-Sep-10 18:33N 41°04' W 071°56'0 0.0
2014-Sep-10 17:33N 41°04' W 071°56'0 0.0
2014-Sep-10 16:33N 41°04' W 071°56'0 0.0
2014-Sep-10 15:33N 41°04' W 071°56'0 0.0
2014-Sep-10 14:33N 41°04' W 071°56'0 0.0
2014-Sep-10 13:33N 41°04' W 071°56'0 0.0
2014-Sep-10 12:33N 41°04' W 071°56'0 0.0
2014-Sep-10 11:33N 41°04' W 071°56'0 0.0
2014-Sep-10 10:33N 41°04' W 071°56'0 0.0
2014-Sep-10 09:33N 41°04' W 071°56'0 0.0
2014-Sep-10 08:33N 41°04' W 071°56'0 0.0
2014-Sep-10 07:33N 41°04' W 071°56'0 0.0
2014-Sep-10 06:33N 41°04' W 071°56'0 0.0
2014-Sep-10 05:33N 41°04' W 071°56'0 0.0
2014-Sep-10 04:33N 41°04' W 071°56'0 0.0
2014-Sep-10 03:33N 41°04' W 071°56'0 0.0
2014-Sep-10 02:33N 41°04' W 071°56'0 0.0
2014-Sep-10 01:33N 41°04' W 071°56'0 0.0
2014-Sep-10 00:33N 41°04' W 071°56'0 0.0
2014-Sep-09 23:33N 41°04' W 071°56'0 0.0
2014-Sep-09 22:33N 41°04' W 071°56'0 0.0
2014-Sep-09 21:33N 41°04' W 071°56'0 0.0
2014-Sep-09 20:33N 41°04' W 071°56'0 0.0
2014-Sep-09 19:33N 41°04' W 071°56'0 0.0
2014-Sep-09 18:33N 41°04' W 071°56'0 0.0
2014-Sep-09 17:33N 41°04' W 071°56'0 0.0
2014-Sep-09 16:33N 41°04' W 071°56'0 0.0
2014-Sep-09 15:33N 41°04' W 071°56'0 0.0
2014-Sep-09 14:33N 41°04' W 071°56'0 0.0
2014-Sep-09 13:33N 41°04' W 071°56'0 0.0
2014-Sep-09 12:33N 41°04' W 071°56'0 0.0
2014-Sep-09 11:33N 41°04' W 071°56'0 0.0
2014-Sep-09 10:33N 41°04' W 071°56'0 0.0
2014-Sep-09 09:33N 41°04' W 071°56'0 0.0
2014-Sep-09 08:33N 41°04' W 071°56'0 0.0
2014-Sep-09 07:33N 41°04' W 071°56'0 0.0
2014-Sep-09 06:33N 41°04' W 071°56'0 0.0
2014-Sep-09 05:33N 41°04' W 071°56'0 0.0
2014-Sep-09 04:33N 41°04' W 071°56'0 0.0
2014-Sep-09 03:33N 41°04' W 071°56'0 0.0
2014-Sep-09 02:33N 41°04' W 071°56'0 0.0
2014-Sep-09 01:33N 41°04' W 071°56'0 0.0
2014-Sep-09 00:33N 41°04' W 071°56'0 0.0
2014-Sep-08 23:33N 41°04' W 071°56'0 0.0
2014-Sep-08 22:33N 41°04' W 071°56'0 0.0
2014-Sep-08 21:33N 41°04' W 071°56'0 0.0
2014-Sep-08 20:33N 41°04' W 071°56'0 0.0
2014-Sep-08 19:33N 41°04' W 071°56'0 0.0
2014-Sep-08 18:33N 41°04' W 071°56'0 0.0
2014-Sep-08 17:33N 41°04' W 071°56'0 0.0
2014-Sep-08 16:33N 41°04' W 071°56'0 0.0
2014-Sep-08 15:33N 41°04' W 071°56'0 0.0
2014-Sep-08 14:33N 41°04' W 071°56'0 0.0
2014-Sep-08 13:33N 41°04' W 071°56'  
Track history (hours):
 
Tides and Currents Weather Stations Pressure Air Temp Water Temp Dewpoint Dewpoint Depression Visibility Wind Speed Wind Dir Waves Ship Positions

Four Wishes

Last reported at 2014-Sep-18 13:14 UTC. Time now 2014-Sep-20 16:00 UTC.
Position N 40°44' W 074°02'.

Length 44 m; draft 2.2 m.

Type: Pleasure craft. MMSI: 319083000.

Date/timePositionNaut miles runAvg speedWind from/ knotsBaromVisibWave heightAir tempDewpointWater temp
2014-Sep-18 13:14N 40°44' W 074°02'0 0.0
2014-Sep-18 12:33N 40°44' W 074°02'0 0.0
2014-Sep-18 11:33N 40°44' W 074°02'0 0.1
2014-Sep-18 10:32N 40°44' W 074°02'  
2014-Sep-13 18:20N 40°42' W 074°00'8 9.9
2014-Sep-13 17:34N 40°48' W 073°54'9 8.5
2014-Sep-13 16:33N 40°52' W 073°44'1313.0
2014-Sep-13 15:33N 40°58' W 073°29'1313.0
2014-Sep-13 14:33N 41°01' W 073°12'1312.6
2014-Sep-13 13:33N 41°04' W 072°56'1212.4
2014-Sep-13 12:34N 41°06' W 072°40'1211.7
2014-Sep-13 11:34N 41°09' W 072°25'9 9.3
2014-Sep-13 10:34N 41°09' W 072°12'8 8.2
2014-Sep-13 09:34N 41°02' W 072°17'0 0.5
2014-Sep-13 08:33N 41°02' W 072°18'0 0.0
2014-Sep-13 07:33N 41°02' W 072°18'0 0.0
2014-Sep-13 06:33N 41°02' W 072°18'0 0.0
2014-Sep-13 05:33N 41°02' W 072°18'0 0.0
2014-Sep-13 04:33N 41°02' W 072°18'0 0.0
2014-Sep-13 03:33N 41°02' W 072°18'0 0.0
2014-Sep-13 02:33N 41°02' W 072°18'0 0.0
2014-Sep-13 01:33N 41°02' W 072°17'0 0.0
2014-Sep-13 00:33N 41°02' W 072°17'0 0.0
2014-Sep-12 23:33N 41°02' W 072°17'0 0.0
2014-Sep-12 22:33N 41°02' W 072°17'0 0.0
2014-Sep-12 21:33N 41°02' W 072°17'0 0.0
2014-Sep-12 20:33N 41°02' W 072°17'0 0.0
2014-Sep-12 19:33N 41°02' W 072°17'0 0.0
2014-Sep-12 18:33N 41°02' W 072°17'0 0.0
2014-Sep-12 17:33N 41°02' W 072°17'0 0.0
2014-Sep-12 16:33N 41°02' W 072°17'0 0.0
2014-Sep-12 15:33N 41°02' W 072°17'1 0.7
2014-Sep-12 14:33N 41°02' W 072°17'1110.7
2014-Sep-12 13:33N 41°09' W 072°07'9 9.2
2014-Sep-12 12:33N 41°04' W 071°56'0 0.0
2014-Sep-12 11:33N 41°04' W 071°56'0 0.0
2014-Sep-12 10:33N 41°04' W 071°56'0 0.0
2014-Sep-12 09:33N 41°04' W 071°56'0 0.0
2014-Sep-12 08:33N 41°04' W 071°56'0 0.0
2014-Sep-12 07:33N 41°04' W 071°56'0 0.0
2014-Sep-12 06:33N 41°04' W 071°56'0 0.0
2014-Sep-12 05:33N 41°04' W 071°56'0 0.0
2014-Sep-12 04:33N 41°04' W 071°56'0 0.0
2014-Sep-12 03:33N 41°04' W 071°56'0 0.0
2014-Sep-12 02:33N 41°04' W 071°56'0 0.0
2014-Sep-12 01:33N 41°04' W 071°56'0 0.0
2014-Sep-12 00:33N 41°04' W 071°56'0 0.0
2014-Sep-11 23:33N 41°04' W 071°56'0 0.0
2014-Sep-11 22:33N 41°04' W 071°56'0 0.0
2014-Sep-11 21:33N 41°04' W 071°56'0 0.0
2014-Sep-11 20:33N 41°04' W 071°56'0 0.0
2014-Sep-11 19:33N 41°04' W 071°56'0 0.0
2014-Sep-11 18:33N 41°04' W 071°56'0 0.0
2014-Sep-11 17:33N 41°04' W 071°56'0 0.0
2014-Sep-11 16:33N 41°04' W 071°56'0 0.0
2014-Sep-11 15:33N 41°04' W 071°56'0 0.0
2014-Sep-11 14:33N 41°04' W 071°56'0 0.0
2014-Sep-11 13:33N 41°04' W 071°56'0 0.0
2014-Sep-11 12:33N 41°04' W 071°56'0 0.0
2014-Sep-11 11:33N 41°04' W 071°56'0 0.0
2014-Sep-11 10:33N 41°04' W 071°56'0 0.0
2014-Sep-11 09:33N 41°04' W 071°56'0 0.0
2014-Sep-11 08:33N 41°04' W 071°56'0 0.0
2014-Sep-11 07:33N 41°04' W 071°56'0 0.0
2014-Sep-11 06:33N 41°04' W 071°56'0 0.0
2014-Sep-11 05:33N 41°04' W 071°56'0 0.0
2014-Sep-11 04:33N 41°04' W 071°56'0 0.0
2014-Sep-11 03:33N 41°04' W 071°56'0 0.0
2014-Sep-11 02:33N 41°04' W 071°56'0 0.0
2014-Sep-11 01:33N 41°04' W 071°56'0 0.0
2014-Sep-11 00:33N 41°04' W 071°56'0 0.0
2014-Sep-10 23:33N 41°04' W 071°56'0 0.0
2014-Sep-10 22:33N 41°04' W 071°56'0 0.0
2014-Sep-10 21:33N 41°04' W 071°56'0 0.0
2014-Sep-10 20:33N 41°04' W 071°56'0 0.0
2014-Sep-10 19:33N 41°04' W 071°56'0 0.0
2014-Sep-10 18:33N 41°04' W 071°56'0 0.0
2014-Sep-10 17:33N 41°04' W 071°56'0 0.0
2014-Sep-10 16:33N 41°04' W 071°56'0 0.0
2014-Sep-10 15:33N 41°04' W 071°56'0 0.0
2014-Sep-10 14:33N 41°04' W 071°56'0 0.0
2014-Sep-10 13:33N 41°04' W 071°56'0 0.0
2014-Sep-10 12:33N 41°04' W 071°56'0 0.0
2014-Sep-10 11:33N 41°04' W 071°56'0 0.0
2014-Sep-10 10:33N 41°04' W 071°56'0 0.0
2014-Sep-10 09:33N 41°04' W 071°56'0 0.0
2014-Sep-10 08:33N 41°04' W 071°56'0 0.0
2014-Sep-10 07:33N 41°04' W 071°56'0 0.0
2014-Sep-10 06:33N 41°04' W 071°56'0 0.0
2014-Sep-10 05:33N 41°04' W 071°56'0 0.0
2014-Sep-10 04:33N 41°04' W 071°56'0 0.0
2014-Sep-10 03:33N 41°04' W 071°56'0 0.0
2014-Sep-10 02:33N 41°04' W 071°56'0 0.0
2014-Sep-10 01:33N 41°04' W 071°56'0 0.0
2014-Sep-10 00:33N 41°04' W 071°56'0 0.0
2014-Sep-09 23:33N 41°04' W 071°56'0 0.0
2014-Sep-09 22:33N 41°04' W 071°56'0 0.0
2014-Sep-09 21:33N 41°04' W 071°56'0 0.0
2014-Sep-09 20:33N 41°04' W 071°56'0 0.0
2014-Sep-09 19:33N 41°04' W 071°56'0 0.0
2014-Sep-09 18:33N 41°04' W 071°56'0 0.0
2014-Sep-09 17:33N 41°04' W 071°56'0 0.0
2014-Sep-09 16:33N 41°04' W 071°56'0 0.0
2014-Sep-09 15:33N 41°04' W 071°56'0 0.0
2014-Sep-09 14:33N 41°04' W 071°56'0 0.0
2014-Sep-09 13:33N 41°04' W 071°56'0 0.0
2014-Sep-09 12:33N 41°04' W 071°56'0 0.0
2014-Sep-09 11:33N 41°04' W 071°56'0 0.0
2014-Sep-09 10:33N 41°04' W 071°56'0 0.0
2014-Sep-09 09:33N 41°04' W 071°56'0 0.0
2014-Sep-09 08:33N 41°04' W 071°56'0 0.0
2014-Sep-09 07:33N 41°04' W 071°56'0 0.0
2014-Sep-09 06:33N 41°04' W 071°56'0 0.0
2014-Sep-09 05:33N 41°04' W 071°56'0 0.0
2014-Sep-09 04:33N 41°04' W 071°56'0 0.0
2014-Sep-09 03:33N 41°04' W 071°56'0 0.0
2014-Sep-09 02:33N 41°04' W 071°56'0 0.0
2014-Sep-09 01:33N 41°04' W 071°56'0 0.0
2014-Sep-09 00:33N 41°04' W 071°56'0 0.0
2014-Sep-08 23:33N 41°04' W 071°56'0 0.0
2014-Sep-08 22:33N 41°04' W 071°56'0 0.0
2014-Sep-08 21:33N 41°04' W 071°56'0 0.0
2014-Sep-08 20:33N 41°04' W 071°56'0 0.0
2014-Sep-08 19:33N 41°04' W 071°56'0 0.0
2014-Sep-08 18:33N 41°04' W 071°56'0 0.0
2014-Sep-08 17:33N 41°04' W 071°56'0 0.0
2014-Sep-08 16:33N 41°04' W 071°56'0 0.0
2014-Sep-08 15:33N 41°04' W 071°56'0 0.0
2014-Sep-08 14:33N 41°04' W 071°56'0 0.0
2014-Sep-08 13:33N 41°04' W 071°56'  

Dump ship's entire track history